Latest Coastal Weather Observations for East Sale

IDV60701

Issued at 1:11 pm EST Friday 26 August 2016 (issued every 10 minutes, with the page automatically refreshed every 10 minutes)

About coastal observations | Map of coastal stations | Coastal observations for VIC | Marine services | Other Formats
Station Details ID: 085072 Name: EAST SALE AIRPORT Lat: -38.12 Lon: 147.13 Height: 4.6 m
Data from the previous 72 hours. | See also: Recent months at East Sale
Date/Time
EST
Temp
°C
Wind Pressure Rain since
9am
mm
Weather Cloud Vis
km
Sea
Height
m
Swell
Dir  Spd
kts
Gust
kts
hPa Trend Height
m
Period
s
Dir
26/01:00pm 12.4 W 16 21 1020.0 - 0.0 - Mostly clear 10 - - - -
26/12:30pm 11.9 W 13 18 1020.3 - 0.0 - Mostly clear 10 - - - -
26/12:00pm 12.0 W 15 20 1020.7 R 0.0 - Cloudy 10 - - - -
26/11:30am 11.9 WNW 13 17 1020.8 - 0.0 - Mostly clear 10 - - - -
26/11:00am 11.1 WSW 12 17 1021.0 - 0.0 - Partly cloudy 10 - - - -
26/10:30am 10.7 W 12 16 1021.1 - 0.0 - Mostly clear 10 - - - -
26/10:00am 10.0 W 12 15 1021.2 - 0.0 - Mostly clear 10 - - - -
26/09:30am 10.0 WNW 11 14 1021.3 - 0.0 - Partly cloudy 10 - - - -
26/09:00am 8.9 WNW 11 14 1021.3 R 1.8 - Cloudy 10 - - - -
26/08:30am 8.4 WNW 9 10 1021.2 - 1.8 - Partly cloudy 10 - - - -
26/08:00am 6.5 WNW 7 8 1021.0 - 1.8 - Partly cloudy 10 - - - -
26/07:30am 6.0 W 8 11 1020.9 - 1.8 - Mostly cloudy 10 - - - -
26/07:00am 4.5 W 7 8 1020.5 - 1.8 - - 8 - - - -
26/06:56am 3.9 W 6 7 1020.4 - 1.8 Fog patches - 8 - - - -
26/06:38am 4.0 WNW 8 8 1020.1 - 1.8 - - 6 - - - -
26/06:30am 3.9 WNW 9 10 1019.9 - 1.8 - - 9 - - - -
26/06:00am 4.1 WNW 7 8 1019.8 R 1.8 - - 9 - - - -
26/05:32am 4.1 WNW 7 8 1019.5 - 1.8 - - 10 - - - -
26/05:30am 4.0 WNW 8 8 1019.5 - 1.8 - - 9 - - - -
26/05:13am 5.1 WNW 6 7 1019.4 - 1.8 - - 6 - - - -
26/05:00am 5.6 NW 6 7 1019.3 - 1.8 - - 10 - - - -
26/04:30am 5.7 WNW 8 9 1019.0 - 1.8 - Partly cloudy 10 - - - -
26/04:00am 6.3 W 9 11 1018.7 - 1.8 - Partly cloudy 10 - - - -
26/03:30am 7.2 W 11 14 1018.4 - 1.8 - Cloudy 10 - - - -
26/03:00am 7.1 W 9 11 1018.4 R 1.8 - Mostly cloudy 10 - - - -
26/02:30am 7.2 WSW 11 15 1018.4 - 1.8 - Partly cloudy 10 - - - -
26/02:00am 7.2 W 10 12 1018.6 - 1.8 - Cloudy 10 - - - -
26/01:30am 6.6 WNW 7 9 1018.7 - 1.8 - Partly cloudy 10 - - - -
26/01:00am 5.3 W 8 9 1018.6 - 1.8 - Partly cloudy 10 - - - -
26/12:30am 4.7 NW 7 8 1018.6 - 1.8 - Partly cloudy 10 - - - -
26/12:00am 4.9 NW 7 8 1018.5 R 1.8 - Mostly clear 10 - - - -
 
Date/Time
EST
Temp
°C
Wind Pressure Rain since
9am
mm
Weather Cloud Vis
km
Sea
Height
m
Swell
Dir  Spd
kts
Gust
kts
hPa Trend Height
m
Period
s
Dir
25/11:30pm 4.4 WNW 8 8 1018.3 - 1.8 - - 10 - - - -
25/11:00pm 5.0 WNW 8 9 1018.1 - 1.8 - Partly cloudy 10 - - - -
25/10:30pm 5.3 WNW 8 9 1018.1 - 1.8 - - 10 - - - -
25/10:00pm 6.0 NW 6 7 1018.2 - 1.8 - Partly cloudy 10 - - - -
25/09:30pm 5.9 WNW 9 9 1018.0 - 1.8 - - 10 - - - -
25/09:00pm 6.0 W 8 9 1017.7 R 1.8 - Mostly clear 10 - - - -
25/08:30pm 6.3 WNW 7 8 1017.6 - 1.8 - Partly cloudy 10 - - - -
25/08:00pm 6.2 WNW 7 8 1017.2 - 1.8 - - 10 - - - -
25/07:30pm 6.9 WNW 6 7 1016.9 - 1.8 - - 10 - - - -
25/07:00pm 7.7 SW 8 10 1016.4 - 1.8 - - 10 - - - -
25/06:30pm 9.0 SW 9 12 1016.0 - 1.8 - - 10 - - - -
25/06:00pm 9.5 SW 9 14 1015.4 R 1.6 - - 10 - - - -
25/05:30pm 9.3 WSW 8 12 1015.0 - 1.6 - Partly cloudy 10 - - - -
25/05:00pm 9.9 WSW 8 11 1014.4 - 1.6 - Partly cloudy 10 - - - -
25/04:30pm 11.2 W 11 18 1014.1 - 1.6 - Partly cloudy 10 - - - -
25/04:00pm 11.6 W 13 17 1013.9 - 1.6 - Partly cloudy 10 - - - -
25/03:30pm 11.5 W 13 19 1013.8 - 1.6 - Partly cloudy 10 - - - -
25/03:00pm 11.6 W 18 23 1013.7 R 1.4 - Cloudy 10 - - - -
25/02:30pm 11.0 W 15 21 1013.6 - 1.4 - Mostly clear 10 - - - -
25/02:00pm 10.2 WSW 11 16 1013.4 - 1.4 - Partly cloudy 10 - - - -
25/01:30pm 9.7 WSW 14 19 1013.4 - 1.2 - Partly cloudy 10 - - - -
25/01:00pm 8.8 WSW 6 11 1013.3 - 1.2 - Partly cloudy 10 - - - -
25/12:53pm 8.4 WSW 7 9 1013.3 - 1.2 - Partly cloudy 10 - - - -
25/12:36pm 8.2 SW 16 29 1013.8 - 1.0 Showers Partly cloudy 6 - - - -
25/12:30pm 8.2 W 16 27 1013.7 - 0.4 Showers Mostly cloudy 10 - - - -
25/12:00pm 10.5 W 15 20 1013.5 R 0.0 - Cloudy 10 - - - -
25/11:30am 11.9 W 13 18 1013.6 - 0.0 - Partly cloudy 10 - - - -
25/11:00am 10.3 W 13 18 1013.8 - 0.0 - Partly cloudy 10 - - - -
25/10:30am 10.1 W 16 20 1013.6 - 0.0 - Partly cloudy 10 - - - -
25/10:00am 9.0 WSW 13 17 1013.5 - 0.0 - Partly cloudy 10 - - - -
25/09:30am 9.3 W 13 17 1013.4 - 0.0 - Mostly clear 10 - - - -
25/09:00am 8.5 WNW 11 14 1013.5 R 0.0 - Mostly clear 10 - - - -
25/08:30am 7.5 WNW 11 15 1013.4 - 0.0 - Mostly clear 10 - - - -
25/08:00am 6.8 WNW 9 13 1013.0 - 0.0 - - 10 - - - -
25/07:30am 6.0 W 9 12 1012.8 - 0.0 - - 10 - - - -
25/07:00am 5.0 WNW 8 9 1012.5 - 0.0 - - 10 - - - -
25/06:30am 4.3 WNW 8 9 1012.3 - 0.0 - - 10 - - - -
25/06:00am 4.1 WNW 9 9 1012.1 F 0.0 - - 10 - - - -
25/05:30am 4.8 W 7 9 1012.0 - 0.0 - - 10 - - - -
25/05:00am 5.3 W 8 10 1011.8 - 0.0 - Partly cloudy 10 - - - -
25/04:30am 5.6 WNW 6 8 1011.8 - 0.0 - Partly cloudy 10 - - - -
25/04:00am 5.9 W 8 10 1011.8 - 0.0 - Cloudy 10 - - - -
25/03:30am 5.6 W 6 8 1011.9 - 0.0 - Partly cloudy 10 - - - -
25/03:00am 5.8 WNW 7 9 1012.1 F 0.0 - Cloudy 10 - - - -
25/02:30am 6.2 WNW 6 7 1012.1 - 0.0 - Partly cloudy 10 - - - -
25/02:00am 5.9 WNW 7 8 1012.1 - 0.0 - Cloudy 10 - - - -
25/01:30am 5.4 WNW 8 8 1012.3 - 0.0 - Partly cloudy 10 - - - -
25/01:00am 5.4 W 7 10 1012.6 - 0.0 - - 10 - - - -
25/12:30am 5.3 WNW 6 7 1012.7 - 0.0 - Partly cloudy 10 - - - -
25/12:00am 5.8 WNW 7 7 1012.9 F 0.0 - Mostly clear 10 - - - -
 
Date/Time
EST
Temp
°C
Wind Pressure Rain since
9am
mm
Weather Cloud Vis
km
Sea
Height
m
Swell
Dir  Spd
kts
Gust
kts
hPa Trend Height
m
Period
s
Dir
24/11:30pm 6.3 WNW 5 6 1013.1 - 0.0 - Partly cloudy 10 - - - -
24/11:00pm 7.1 WNW 6 6 1013.1 - 0.0 - Partly cloudy 10 - - - -
24/10:30pm 7.6 WNW 6 6 1013.4 - 0.0 - Partly cloudy 10 - - - -
24/10:00pm 8.2 NW 6 7 1013.6 - 0.0 - Cloudy 10 - - - -
24/09:30pm 8.1 W 4 6 1013.4 - 0.0 - Cloudy 10 - - - -
24/09:00pm 8.5 WSW 5 6 1013.5 F 0.0 - Cloudy 10 - - - -
24/08:30pm 8.7 NW 4 5 1013.7 - 0.0 - Partly cloudy 10 - - - -
24/08:00pm 8.6 SW 4 6 1013.6 - 0.0 - Partly cloudy 10 - - - -
24/07:30pm 8.8 S 5 7 1013.3 - 0.0 - Partly cloudy 10 - - - -
24/07:00pm 9.5 SSE 5 7 1013.4 - 0.0 - Partly cloudy 10 - - - -
24/06:30pm 9.1 SSE 5 6 1013.2 - 0.0 - Partly cloudy 10 - - - -
24/06:00pm 9.9 SSE 6 7 1013.1 F 0.0 - Mostly cloudy 10 - - - -
24/05:30pm 10.2 SSE 6 8 1013.0 - 0.0 - Partly cloudy 10 - - - -
24/05:00pm 10.5 SE 6 7 1012.9 - 0.0 - Partly cloudy 10 - - - -
24/04:30pm 11.4 SE 7 10 1012.7 - 0.0 - Mostly clear 10 - - - -
24/04:00pm 11.1 SSE 9 11 1012.8 - 0.0 - Mostly clear 10 - - - -
24/03:30pm 11.5 S 9 13 1012.9 - 0.0 - Mostly clear 10 - - - -
24/03:00pm 11.5 SSE 9 12 1013.0 F 0.0 - Mostly cloudy 10 - - - -
24/02:30pm 12.1 SE 8 10 1013.1 - 0.0 - Partly cloudy 10 - - - -
24/02:00pm 11.8 SSE 10 13 1013.3 - 0.0 - Partly cloudy 10 - - - -
24/01:30pm 13.0 ENE 4 8 1013.5 - 0.0 - Partly cloudy 10 - - - -
24/01:00pm 13.7 NW 4 6 1013.8 - 0.0 - Partly cloudy 10 - - - -
24/12:30pm 12.9 NNE 3 4 1014.3 - 0.0 - Mostly clear 10 - - - -
24/12:00pm 12.0 SW 3 5 1014.6 F 0.0 - Partly cloudy 10 - - - -
24/11:30am 11.4 SW 4 6 1015.1 - 0.0 - Mostly clear 10 - - - -
24/11:00am 10.3 WNW 5 7 1015.3 - 0.0 - Mostly clear 10 - - - -
24/10:30am 9.5 WNW 6 8 1015.9 - 0.0 - Mostly clear 10 - - - -
24/10:00am 8.7 WNW 8 10 1016.3 - 0.0 - - 10 - - - -
24/09:30am 7.9 WNW 8 10 1016.5 - 0.0 - - 10 - - - -
24/09:00am 5.6 W 7 9 1016.8 F 0.2 - - 10 - - - -
24/08:30am 4.0 W 8 9 1017.0 - 0.2 - - 10 - - - -
24/08:00am 2.8 WNW 5 6 1016.9 - 0.2 - Partly cloudy 10 - - - -
24/07:59am 2.7 WNW 5 6 1016.9 - 0.2 - Partly cloudy 10 - - - -
24/07:30am 1.6 WNW 5 7 1016.9 - 0.2 Fog Cloudy 0.5 - - - -
24/07:00am 1.2 NW 7 8 1016.9 - 0.2 - Partly cloudy 0.8 - - - -
24/06:48am 1.1 NW 6 7 1016.8 - 0.2 - - 10 - - - -
24/06:41am 1.1 NW 6 7 1016.8 - 0.2 - Partly cloudy 8 - - - -
24/06:30am 1.2 WNW 7 7 1016.7 - 0.2 - Partly cloudy 3 - - - -
24/06:00am 1.6 W 5 6 1016.5 F 0.2 Recent precip. Partly cloudy 0.4 - - - -
24/05:52am 1.8 W 6 7 1016.5 - 0.2 - Partly cloudy 1 - - - -
24/05:48am 1.8 W 6 8 1016.5 - 0.2 - Partly cloudy 5 - - - -
24/05:45am 1.9 WNW 7 8 1016.5 - 0.2 - Partly cloudy 7 - - - -
24/05:35am 1.5 WNW 8 8 1016.5 - 0.2 - Partly cloudy 6 - - - -
24/05:30am 1.5 WNW 8 8 1016.6 - 0.0 - Partly cloudy 2 - - - -
24/05:20am 1.8 WNW 7 8 1016.6 - 0.0 - Partly cloudy 0.6 - - - -
24/05:13am 1.7 WNW 7 8 1016.6 - 0.0 - Partly cloudy 5 - - - -
24/05:00am 1.8 WNW 6 7 1016.6 - 0.0 - - 10 - - - -
24/04:50am 1.7 WNW 6 8 1016.5 - 0.0 - - 7 - - - -
24/04:30am 1.1 W 3 5 1016.4 - 0.0 - Partly cloudy 1 - - - -
24/04:26am 1.4 W 3 4 1016.3 - 0.0 - Partly cloudy 5 - - - -
24/04:00am 2.0 WNW 4 5 1016.5 - 0.0 - Partly cloudy 10 - - - -
24/03:44am 2.9 NW 4 5 1016.5 - 0.0 - Partly cloudy 10 - - - -
24/03:30am 2.2 NW 5 6 1016.5 - 0.0 - Partly cloudy 2 - - - -
24/03:00am 1.8 WNW 4 4 1016.8 F 0.0 - Partly cloudy 0.5 - - - -
24/02:58am 1.9 WNW 4 4 1016.8 - 0.0 - Partly cloudy 3 - - - -
24/02:54am 2.0 WNW 4 4 1016.9 - 0.0 - Partly cloudy 10 - - - -
24/02:30am 2.6 WSW 3 3 1017.0 - 0.0 - - 4 - - - -
24/02:00am 2.3 W 4 4 1017.4 - 0.0 - - 0.7 - - - -
24/01:30am 2.2 SW 3 3 1017.6 - 0.0 - - 10 - - - -
24/01:11am 2.9 SW 4 5 1017.8 - 0.0 - - 6 - - - -
24/01:00am 3.4 SW 4 4 1017.9 - 0.0 - - 10 - - - -
24/12:30am 4.0 WSW 4 4 1018.0 - 0.0 - - 10 - - - -
24/12:00am 3.7 NW 4 5 1018.1 R 0.0 - - 10 - - - -
 
Date/Time
EST
Temp
°C
Wind Pressure Rain since
9am
mm
Weather Cloud Vis
km
Sea
Height
m
Swell
Dir  Spd
kts
Gust
kts
hPa Trend Height
m
Period
s
Dir
23/11:30pm 3.7 NW 6 7 1018.0 - 0.0 - Partly cloudy 10 - - - -
23/11:00pm 4.7 NW 6 7 1018.0 - 0.0 - - 10 - - - -
23/10:30pm 4.6 NW 6 6 1018.0 - 0.0 - - 10 - - - -
23/10:00pm 4.7 NW 6 8 1018.0 - 0.0 - Partly cloudy 10 - - - -
23/09:30pm 4.7 NW 6 6 1018.1 - 0.0 - - 10 - - - -
23/09:00pm 6.6 SW 3 4 1018.1 S 0.0 - - 10 - - - -
23/08:30pm 6.3 W 1 9 1018.0 - 0.0 - - 10 - - - -
23/08:00pm 5.6 CALM 0 0 1018.0 - 0.0 - - 10 - - - -
23/07:30pm 6.5 CALM 0 0 1017.9 - 0.0 - - 10 - - - -
23/07:00pm 6.7 E 3 4 1017.6 - 0.0 - - 10 - - - -
23/06:30pm 8.5 SE 4 5 1017.4 - 0.0 - - 10 - - - -
23/06:00pm 9.6 SSE 7 9 1017.2 R 0.0 - Partly cloudy 10 - - - -
23/05:30pm 10.9 SE 5 6 1017.2 - 0.0 - Cloudy 10 - - - -
23/05:00pm 11.1 SE 6 8 1017.0 - 0.0 - Mostly clear 10 - - - -
23/04:30pm 11.6 ESE 5 6 1016.9 - 0.0 - Mostly clear 10 - - - -
23/04:00pm 11.8 SE 5 7 1016.8 - 0.0 - Partly cloudy 10 - - - -
23/03:30pm 11.6 S 5 9 1016.5 - 0.0 - Partly cloudy 10 - - - -
23/03:00pm 12.3 CALM 0 0 1016.3 R 0.0 - Cloudy 10 - - - -
23/02:30pm 12.1 WNW 5 7 1016.3 - 0.0 - Partly cloudy 10 - - - -
23/02:00pm 12.8 W 3 6 1016.2 - 0.0 - Mostly clear 10 - - - -
23/01:30pm 13.1 SW 4 7 1016.4 - 0.0 - Partly cloudy 10 - - - -

Other Formats:

Comma delimited format used in spreadsheet applications
http://www.bom.gov.au/fwo/IDV60701/IDV60701.94907.axf

JavaScript Object Notation format (JSON) in row-major order
http://www.bom.gov.au/fwo/IDV60701/IDV60701.94907.json